Ride Results

Moyston CFA Fundraiser (28-08-2011)
Ride distance: 85.0 km

Outcomes - Moyston CFA Fundraiser (28-08-2011)
Division No. of Entries Retired / DNE Completed Withdrawn Ineligible V/O Percentage Completed
HW 12 - 9 1 - 2 75.00%
MW 20 - 15 2 - 3 75.00%
LW 11 - 9 2 - - 81.82%
JN 4 - 3 1 - - 75.00%
Totals 47 - 36 6 - 5 76.60%
Results - Moyston CFA Fundraiser (28-08-2011)
No. Rider Horse Place Time Leg Speeds Total
Km/Hr
H/R bpm
Heavyweight
18 Ken Bradley Twin Peaks Kenny Karaoke 1 5:12:00 17.2, 15.5 16.35 40, 44, 41 (Avg:42)
65 Carl Adamson Sundown Park Miss Jacob 2 (BC) 5:17:00 17.0, 15.2 16.09 24, 46, 44 (Avg:45)
213 Amanda Jakiel Deneldan Sasha 3 6:31:00 13.1, 12.9 13.04 40, 40, 54 (Avg:47)
7 Robert Punicki Kazzo Park Ausborn 4 6:47:00 13.6, 11.6 12.53 26, 34, 28 (Avg:31)
337 Allison Whitney Carnival Narbay 4 6:47:00 13.6, 11.6 12.53 36, 42, 48 (Avg:45)
82 Jarrod Robinson Lew-Oak Ahmad 6 6:52:00 12.7, 12.0 12.38 38, 44, 48 (Avg:46)
76 Russell Robinson Pye Park Cosmopolitan 6 6:52:00 12.7, 12.0 12.38 38, 43, 54 (Avg:48)
216 Kristina Meskauskaite Magic Glenn Private Gulf 8 7:13:00 11.8, 11.7 11.78 36, 46, 48 (Avg:47)
891 Stephen Pitt Dara Park He's a Profit 9 8:14:00 12.0, 9.0 10.32 36, 54, 58 (Avg:56)
313 Dom Falcomer Beautiful Withdrawn L2 0:00:00 - - 32, 44, 0 (Avg:22)
191 Jake Verspaandonk Belectra BBP Chantelle Lame L2 0:00:00 11.5, 10.9 - 36, 40, 55 (Avg:47)
131 Simon Thomas Morundah Just Sharii Lame L1 0:00:00 10.9 - 42, 44 (Avg:44)
Middleweight
13 Linda Tanian Castlebar Nova 1 (BC) 6:13:00 13.2, 14.0 13.67 30, 42, 40 (Avg:41)
84 Kristie Taprell Castlebar Gulfstream 1 6:13:00 13.2, 14.0 13.67 30, 32, 44 (Avg:38)
173 Robyn Albers A'landell Kwaint 3 6:28:00 14.6, 11.9 13.14 44, 41, 45 (Avg:43)
81 Tarryn Marshall Dara Park Alikhan 3 6:28:00 13.7, 12.5 13.14 44, 48, 48 (Avg:48)
907 Leonie Goode Ben 10 5 6:33:00 13.4, 12.5 12.98 28, 43, 53 (Avg:48)
138 Emma Sellens Musical Gully Legato 5 6:33:00 13.4, 12.5 12.98 34, 38, 46 (Avg:42)
864 Rachael Laidlaw Bushies Luthien 7 6:35:00 12.2, 13.5 12.91 34, 44, 42 (Avg:43)
192 Tabitha Verspaandonk Moulin Rouge 8 6:38:00 12.8, 12.7 12.81 32, 44, 54 (Avg:49)
77 Trish Reeves Destined For Dubai 9 6:47:00 13.6, 11.6 12.53 30, 42, 42 (Avg:42)
8 Jane McLaughlin Syrahbia 10 6:58:00 13.1, 11.3 12.20 46, 51, 50 (Avg:50)
42 Hans Peuker Marybank Marlee 11 7:05:00 11.8, 12.1 12.00 38, 44, 60 (Avg:52)
872 Annabelle Jacka Castlebar Duke 12 7:10:00 11.8, 11.8 11.86 8, 40, 46 (Avg:43)
219 Caroline Noble Gaelic Storm 13 8:14:00 12.0, 9.0 10.32 39, 41, 47 (Avg:44)
107 Jo Brock Im Not Shy (Lady) 14 8:52:00 11.0, 8.4 9.59 30, 40, 49 (Avg:44)
44 Vanessa Smith Dunbraeton Narla 14 8:52:00 11.0, 8.4 9.59 39, 48, 40 (Avg:44)
215 Kim Fitzpatrick Cieanna Heart Rate L2 0:00:00 14.8, 14.0 - 32, 41, 63 (Avg:52)
168 Trish VanDonk Macquarie Park Anellusion Lame L2 0:00:00 11.5, 14.2 - 40, 52, 58 (Avg:55)
69 Sue Cavill Koonwarra Kavalier Withdrawn L1 0:00:00 - - 28, 37 (Avg:37)
893 Shelley Cowan Magic Glenn Cool Guy Withdrawn L1 0:00:00 - - 28, 42 (Avg:42)
89 Sheryl Herbert Krishlah Maleeka Lame L1 0:00:00 12.9 - 33, 54 (Avg:54)
Lightweight
140 Michelle Munro Tiawarra Ramy 1 (BC) 5:13:00 17.2, 15.4 16.29 28, 40, 50 (Avg:45)
11 Rohan Stanes Flying Circus Ring Master 2 6:12:00 13.9, 13.4 13.71 31, 44, 44 (Avg:44)
91 Kim Noble Monkhani Lodge Nobles Locket 3 6:12:01 13.6, 13.7 13.71 36, 50, 50 (Avg:50)
49 Jessica Remfry Just Shakira 4 6:31:00 12.9, 13.0 13.04 34, 50, 51 (Avg:50)
208 Janeen Smith Pterion Leonardo 4 6:31:00 13.1, 12.9 13.04 36, 44, 58 (Avg:51)
22 Sarah McLaughlin Elphyn Shafyre 6 6:58:00 13.1, 11.3 12.20 32, 44, 46 (Avg:45)
183 Nicky Robinson Sterling Nakeeta 6 6:58:00 13.1, 11.3 12.20 38, 44, 46 (Avg:45)
61 Lois Sharam Musical Gully Carousel 8 7:09:00 12.6, 11.2 11.89 35, 42, 58 (Avg:50)
885 Leanne Wyllie DunBraeton Nova 8 7:09:00 12.6, 11.2 11.89 40, 45, 55 (Avg:50)
161 Shannon Decker Rocky Point Blue Kyanite Withdrawn L1 0:00:00 - - 35, 43 (Avg:43)
151 Kasey Thomas Yalandra Charisma Withdrawn L1 0:00:00 - - 34, 32 (Avg:32)
Junior
90 Samantha Noble Springridge Bungendore 1 (BC) 5:39:00 17.0, 13.5 15.04 32, 41, 40 (Avg:40)
148 Allen Mackenzie LadyBlaze 2 6:14:00 13.6, 13.5 13.64 38, 46, 58 (Avg:52)
195 Nikita Verspaandonk Wally 3 6:38:00 12.8, 12.7 12.81 40, 44, 51 (Avg:47)
154 Tegan Gillingham Saydor Withdrawn L1 0:00:00 - - 38, 51 (Avg:51)